Time,TemperatureF,DewpointF,PressureIn,WindDirection,WindDirectionDegrees,WindSpeedMPH,WindSpeedGustMPH,Humidity,HourlyPrecipIn,Conditions,Clouds,dailyrainin,SoftwareType,DateUTC
2013-07-15 00:22:00,89.0,-99.9,-100.00,North,-999,-999.0,-999.0,-999,-99.99,,,-99.99,,2013-07-15 07:22:00,
2013-07-15 00:33:00,89.0,-99.9,-100.00,North,-999,-999.0,-999.0,-999,-99.99,,,-99.99,,2013-07-15 07:33:00,
2013-07-15 00:44:00,-999.0,-99.9,-100.00,NNE,28,2.0,-999.0,-999,-99.99,,,-99.99,,2013-07-15 07:44:00,
2013-07-15 02:43:00,-999.0,-99.9,-100.00,NE,50,2.0,-999.0,-999,-99.99,,,-99.99,,2013-07-15 09:43:00,
2013-07-15 02:53:00,-999.0,-99.9,-100.00,NE,50,2.0,-999.0,-999,-99.99,,,-99.99,,2013-07-15 09:53:00,
2013-07-15 03:02:00,-999.0,-99.9,-100.00,NE,50,2.0,-999.0,-999,-99.99,,,-99.99,,2013-07-15 10:02:00,
2013-07-15 03:11:00,86.0,51.0,-100.00,North,-999,-999.0,-999.0,29,-99.99,,,-99.99,,2013-07-15 10:11:00,
2013-07-15 03:21:00,86.0,51.0,-100.00,North,-999,-999.0,-999.0,29,-99.99,,,-99.99,,2013-07-15 10:21:00,
2013-07-15 03:32:00,86.0,51.0,-100.00,North,-999,-999.0,-999.0,29,-99.99,,,-99.99,,2013-07-15 10:32:00,
2013-07-15 03:43:00,-999.0,-99.9,-100.00,NE,50,3.0,-999.0,-999,-99.99,,,-99.99,,2013-07-15 10:43:00,
2013-07-15 03:53:00,-999.0,-99.9,-100.00,NE,50,3.0,-999.0,-999,-99.99,,,-99.99,,2013-07-15 10:53:00,
2013-07-15 04:02:00,-999.0,-99.9,-100.00,NE,50,3.0,-999.0,-999,-99.99,,,-99.99,,2013-07-15 11:02:00,
2013-07-15 04:11:00,-999.0,-99.9,-100.00,NNE,33,4.0,-999.0,-999,-99.99,,,-99.99,,2013-07-15 11:11:00,
2013-07-15 04:22:00,-999.0,-99.9,-100.00,NNE,33,4.0,-999.0,-999,-99.99,,,-99.99,,2013-07-15 11:22:00,
2013-07-15 04:32:00,-999.0,-99.9,-100.00,NNE,33,4.0,-999.0,-999,-99.99,,,-99.99,,2013-07-15 11:32:00,
2013-07-15 04:43:00,-999.0,-99.9,-100.00,NNE,33,4.0,-999.0,-999,-99.99,,,-99.99,,2013-07-15 11:43:00,
2013-07-15 04:52:00,-999.0,-99.9,-100.00,NNE,33,4.0,-999.0,-999,-99.99,,,-99.99,,2013-07-15 11:52:00,
2013-07-15 05:30:00,-999.0,-99.9,-100.00,ENE,67,5.0,-999.0,-999,-99.99,,,-99.99,,2013-07-15 12:30:00,
2013-07-15 05:53:00,-999.0,-99.9,-100.00,ENE,67,5.0,-999.0,-999,-99.99,,,-99.99,,2013-07-15 12:53:00,
2013-07-15 06:02:00,-999.0,-99.9,-100.00,ENE,67,5.0,-999.0,-999,-99.99,,,-99.99,,2013-07-15 13:02:00,
2013-07-15 06:11:00,-999.0,-99.9,-100.00,ENE,67,5.0,-999.0,-999,-99.99,,,-99.99,,2013-07-15 13:11:00,
2013-07-15 06:22:00,-999.0,-99.9,-100.00,ENE,67,5.0,-999.0,-999,-99.99,,,-99.99,,2013-07-15 13:22:00,
2013-07-15 06:53:00,-999.0,-99.9,-100.00,NE,45,5.0,-999.0,-999,-99.99,,,-99.99,,2013-07-15 13:53:00,
2013-07-15 07:02:00,-999.0,-99.9,-100.00,NE,45,5.0,-999.0,-999,-99.99,,,-99.99,,2013-07-15 14:02:00,
2013-07-15 07:11:00,-999.0,-99.9,-100.00,NE,45,5.0,-999.0,-999,-99.99,,,-99.99,,2013-07-15 14:11:00,
2013-07-15 07:22:00,-999.0,-99.9,-100.00,NE,45,5.0,-999.0,-999,-99.99,,,-99.99,,2013-07-15 14:22:00,
2013-07-15 07:43:00,-999.0,-99.9,-100.00,NE,50,6.0,-999.0,-999,-99.99,,,-99.99,,2013-07-15 14:43:00,
2013-07-15 08:03:00,-999.0,-99.9,-100.00,NE,50,6.0,-999.0,-999,-99.99,,,-99.99,,2013-07-15 15:03:00,
2013-07-15 08:08:00,-999.0,-99.9,-100.00,SE,140,5.0,-999.0,-999,-99.99,,,-99.99,,2013-07-15 15:08:00,
2013-07-15 08:13:00,93.0,54.0,-100.00,North,-999,-999.0,-999.0,26,-99.99,,,0.00,,2013-07-15 15:13:00,
2013-07-15 08:23:00,93.0,54.0,-100.00,North,-999,-999.0,-999.0,26,-99.99,,,0.00,,2013-07-15 15:23:00,
2013-07-15 08:54:00,-999.0,-99.9,-100.00,SE,140,5.0,-999.0,-999,-99.99,,,-99.99,,2013-07-15 15:54:00,
2013-07-15 09:34:00,99.0,51.0,-100.00,North,-999,-999.0,-999.0,20,-99.99,,,-99.99,,2013-07-15 16:34:00,
2013-07-15 09:52:00,99.0,51.0,-100.00,North,-999,-999.0,-999.0,20,-99.99,,,-99.99,,2013-07-15 16:52:00,
2013-07-15 10:02:00,99.0,51.0,-100.00,North,-999,-999.0,-999.0,20,-99.99,,,-99.99,,2013-07-15 17:02:00,
2013-07-15 10:11:00,-999.0,-99.9,-100.00,South,174,3.0,-999.0,-999,-99.99,,,-99.99,,2013-07-15 17:11:00,
2013-07-15 10:13:00,99.0,51.0,-100.00,North,-999,-999.0,-999.0,20,-99.99,,,-99.99,,2013-07-15 17:13:00,
2013-07-15 10:23:00,99.0,51.0,-100.00,North,-999,-999.0,-999.0,20,-99.99,,,-99.99,,2013-07-15 17:23:00,
2013-07-15 10:52:00,-999.0,-99.9,-100.00,South,174,3.0,-999.0,-999,-99.99,,,-99.99,,2013-07-15 17:52:00,
2013-07-15 11:01:00,-999.0,-99.9,-100.00,South,174,3.0,-999.0,-999,-99.99,,,-99.99,,2013-07-15 18:01:00,
2013-07-15 11:45:00,-999.0,-99.9,-100.00,ESE,123,2.0,-999.0,-999,-99.99,,,-99.99,,2013-07-15 18:45:00,
2013-07-15 12:05:00,102.0,-99.9,-100.00,North,-999,-999.0,-999.0,-999,-99.99,,,-99.99,,2013-07-15 19:05:00,
2013-07-15 12:11:00,105.0,47.0,-100.00,North,-999,-999.0,-999.0,14,-99.99,,,-99.99,,2013-07-15 19:11:00,
2013-07-15 12:23:00,105.0,47.0,-100.00,North,-999,-999.0,-999.0,14,-99.99,,,-99.99,,2013-07-15 19:23:00,
2013-07-15 13:29:00,-999.0,-99.9,-100.00,West,270,5.0,-999.0,-999,-99.99,,,-99.99,,2013-07-15 20:29:00,
2013-07-15 13:37:00,-999.0,-99.9,-100.00,South,191,6.0,-999.0,-999,-99.99,,,-99.99,,2013-07-15 20:37:00,
2013-07-15 13:43:00,-999.0,-99.9,-100.00,South,191,6.0,-999.0,-999,-99.99,,,-99.99,,2013-07-15 20:43:00,
2013-07-15 14:03:00,-999.0,-99.9,-100.00,SW,236,5.0,-999.0,-999,-99.99,,,-99.99,,2013-07-15 21:03:00,
2013-07-15 14:13:00,-999.0,-99.9,-100.00,SW,236,5.0,-999.0,-999,-99.99,,,-99.99,,2013-07-15 21:13:00,
2013-07-15 14:24:00,-999.0,-99.9,-100.00,SSW,213,8.0,-999.0,-999,-99.99,,,-99.99,,2013-07-15 21:24:00,
2013-07-15 14:41:00,-999.0,-99.9,-100.00,SSW,213,8.0,-999.0,-999,-99.99,,,-99.99,,2013-07-15 21:41:00,
2013-07-15 14:48:00,-999.0,-99.9,-100.00,SSW,208,7.0,-999.0,-999,-99.99,,,-99.99,,2013-07-15 21:48:00,
2013-07-15 15:02:00,109.0,-99.9,-100.00,North,-999,-999.0,-999.0,-999,-99.99,,,-99.99,,2013-07-15 22:02:00,
2013-07-15 15:19:00,-999.0,-99.9,-100.00,SW,225,8.0,-999.0,-999,-99.99,,,-99.99,,2013-07-15 22:19:00,
2013-07-15 15:36:00,-999.0,-99.9,-100.00,SSW,213,8.0,-999.0,-999,-99.99,,,-99.99,,2013-07-15 22:36:00,
2013-07-15 15:44:00,-999.0,-99.9,-100.00,SSW,213,8.0,-999.0,-999,-99.99,,,-99.99,,2013-07-15 22:44:00,
2013-07-15 15:55:00,-999.0,-99.9,-100.00,SSW,213,8.0,-999.0,-999,-99.99,,,-99.99,,2013-07-15 22:55:00,
2013-07-15 16:13:00,-999.0,-99.9,-100.00,SW,219,6.0,-999.0,-999,-99.99,,,-99.99,,2013-07-15 23:13:00,
2013-07-15 16:31:00,-999.0,-99.9,-100.00,SW,219,6.0,-999.0,-999,-99.99,,,-99.99,,2013-07-15 23:31:00,
2013-07-15 16:40:00,-999.0,-99.9,-100.00,SSW,202,8.0,-999.0,-999,-99.99,,,-99.99,,2013-07-15 23:40:00,
2013-07-15 16:50:00,-999.0,-99.9,-100.00,SSW,202,8.0,-999.0,-999,-99.99,,,-99.99,,2013-07-15 23:50:00,
2013-07-15 17:03:00,-999.0,-99.9,-100.00,SSW,196,10.0,-999.0,-999,-99.99,,,-99.99,,2013-07-16 00:03:00,
2013-07-15 17:16:00,-999.0,-99.9,-100.00,SSW,196,10.0,-999.0,-999,-99.99,,,-99.99,,2013-07-16 00:16:00,
2013-07-15 17:28:00,-999.0,-99.9,-100.00,SSW,196,10.0,-999.0,-999,-99.99,,,-99.99,,2013-07-16 00:28:00,
2013-07-15 17:34:00,109.0,-99.9,-100.00,North,-999,-999.0,-999.0,-999,-99.99,,,-99.99,,2013-07-16 00:34:00,
2013-07-15 17:51:00,109.0,-99.9,-100.00,North,-999,-999.0,-999.0,-999,-99.99,,,-99.99,,2013-07-16 00:51:00,
2013-07-15 18:12:00,-999.0,-99.9,-100.00,SSW,213,7.0,-999.0,-999,-99.99,,,-99.99,,2013-07-16 01:12:00,
2013-07-15 18:17:00,-999.0,-99.9,-100.00,SW,225,7.0,-999.0,-999,-99.99,,,-99.99,,2013-07-16 01:17:00,
2013-07-15 18:29:00,-999.0,-99.9,-100.00,SW,225,7.0,-999.0,-999,-99.99,,,-99.99,,2013-07-16 01:29:00,
2013-07-15 18:49:00,-999.0,-99.9,-100.00,South,180,6.0,-999.0,-999,-99.99,,,-99.99,,2013-07-16 01:49:00,
2013-07-15 19:11:00,-999.0,-99.9,-100.00,SE,146,14.0,-999.0,-999,-99.99,,,-99.99,,2013-07-16 02:11:00,
2013-07-15 19:35:00,103.0,-99.9,-100.00,SSE,157,14.0,-999.0,-999,-99.99,,,-99.99,,2013-07-16 02:35:00,
2013-07-15 19:56:00,-999.0,-99.9,-100.00,SSE,151,15.0,-999.0,-999,-99.99,,,-99.99,,2013-07-16 02:56:00,
2013-07-15 20:11:00,-999.0,-99.9,-100.00,SSE,151,15.0,-999.0,-999,-99.99,,,-99.99,,2013-07-16 03:11:00,
2013-07-15 20:42:00,-999.0,-99.9,-100.00,SE,135,14.0,-999.0,-999,-99.99,,,-99.99,,2013-07-16 03:42:00,
2013-07-15 20:49:00,-999.0,-99.9,-100.00,SE,135,13.0,-999.0,-999,-99.99,,,-99.99,,2013-07-16 03:49:00,
2013-07-15 20:58:00,-999.0,-99.9,-100.00,SE,146,13.0,-999.0,-999,-99.99,,,-99.99,,2013-07-16 03:58:00,
2013-07-15 21:02:00,-999.0,-99.9,-100.00,SE,140,12.0,-999.0,-999,-99.99,,,-99.99,,2013-07-16 04:02:00,
2013-07-15 21:12:00,-999.0,-99.9,-100.00,SE,140,12.0,-999.0,-999,-99.99,,,-99.99,,2013-07-16 04:12:00,
2013-07-15 21:22:00,-999.0,-99.9,-100.00,SE,135,12.0,-999.0,-999,-99.99,,,-99.99,,2013-07-16 04:22:00,
2013-07-15 21:32:00,-999.0,-99.9,-100.00,SE,135,12.0,-999.0,-999,-99.99,,,-99.99,,2013-07-16 04:32:00,
2013-07-15 21:43:00,-999.0,-99.9,-100.00,SE,129,12.0,-999.0,-999,-99.99,,,-99.99,,2013-07-16 04:43:00,
2013-07-15 21:53:00,-999.0,-99.9,-100.00,ESE,118,10.0,-999.0,-999,-99.99,,,-99.99,,2013-07-16 04:53:00,
2013-07-15 22:01:00,-999.0,-99.9,-100.00,SE,135,9.0,-999.0,-999,-99.99,,,-99.99,,2013-07-16 05:01:00,
2013-07-15 22:11:00,-999.0,-99.9,-100.00,SE,135,9.0,-999.0,-999,-99.99,,,-99.99,,2013-07-16 05:11:00,
2013-07-15 22:32:00,-999.0,-99.9,-100.00,SE,129,11.0,-999.0,-999,-99.99,,,-99.99,,2013-07-16 05:32:00,
2013-07-15 22:52:00,-999.0,-99.9,-100.00,ESE,123,9.0,-999.0,-999,-99.99,,,-99.99,,2013-07-16 05:52:00,
2013-07-15 23:01:00,-999.0,-99.9,-100.00,ESE,123,9.0,-999.0,-999,-99.99,,,-99.99,,2013-07-16 06:01:00,
2013-07-15 23:12:00,-999.0,-99.9,-100.00,SE,135,8.0,-999.0,-999,-99.99,,,-99.99,,2013-07-16 06:12:00,
2013-07-15 23:22:00,-999.0,-99.9,-100.00,SE,135,8.0,-999.0,-999,-99.99,,,-99.99,,2013-07-16 06:22:00,
2013-07-15 23:32:00,-999.0,-99.9,-100.00,SE,135,8.0,-999.0,-999,-99.99,,,-99.99,,2013-07-16 06:32:00,
2013-07-15 23:52:00,-999.0,-99.9,-100.00,SSE,168,8.0,-999.0,-999,-99.99,,,-99.99,,2013-07-16 06:52:00,